createdAt,value
2023-01-30T00:00:20.456Z,52.21
2023-01-30T00:01:21.413Z,46.25
2023-01-30T00:02:20.395Z,45.76
2023-01-30T00:03:20.389Z,46.73
2023-01-30T00:04:20.483Z,50.92
2023-01-30T00:05:20.361Z,46.08
2023-01-30T00:06:20.355Z,45.44
2023-01-30T00:07:20.346Z,47.86
2023-01-30T00:08:20.299Z,47.05
2023-01-30T00:09:20.296Z,48.02
2023-01-30T00:10:20.385Z,45.60
2023-01-30T00:11:20.272Z,58.17
2023-01-30T00:12:20.290Z,48.66
2023-01-30T00:13:20.231Z,51.40
2023-01-30T00:14:20.222Z,46.25
2023-01-30T00:15:20.215Z,49.47
2023-01-30T00:16:20.243Z,50.76
2023-01-30T00:17:20.251Z,45.60
2023-01-30T00:18:20.157Z,46.08
2023-01-30T00:19:20.765Z,49.31
2023-01-30T00:20:20.591Z,47.21
2023-01-30T00:21:20.159Z,46.25
2023-01-30T00:22:20.171Z,52.53
2023-01-30T00:23:20.142Z,51.88
2023-01-30T00:24:20.242Z,47.05
2023-01-30T00:25:20.341Z,51.40
2023-01-30T00:26:21.284Z,57.85
2023-01-30T00:27:20.079Z,60.10
2023-01-30T00:28:20.154Z,57.20
2023-01-30T00:29:20.263Z,46.57
2023-01-30T00:30:20.237Z,48.34
2023-01-30T00:31:20.064Z,46.89
2023-01-30T00:32:20.024Z,51.24
2023-01-30T00:33:20.057Z,58.01
2023-01-30T00:34:20.006Z,48.66
2023-01-30T00:35:19.993Z,59.62
2023-01-30T00:36:20.004Z,46.41
2023-01-30T00:37:20.036Z,54.46
2023-01-30T00:38:20.102Z,57.85
2023-01-30T00:39:19.957Z,47.53
2023-01-30T00:40:20.423Z,46.57
2023-01-30T00:41:19.952Z,50.11
2023-01-30T00:42:19.950Z,51.88
2023-01-30T00:43:19.983Z,47.70
2023-01-30T00:44:20.016Z,47.53
2023-01-30T00:45:20.463Z,48.18
2023-01-30T00:46:19.896Z,53.66
2023-01-30T00:47:19.877Z,61.71
2023-01-30T00:48:19.832Z,48.34
2023-01-30T00:49:19.919Z,45.60
2023-01-30T00:50:19.877Z,47.86
2023-01-30T00:51:19.924Z,46.08
2023-01-30T00:52:19.878Z,48.66
2023-01-30T00:53:20.059Z,46.25
2023-01-30T00:54:19.893Z,47.70
2023-01-30T00:55:20.011Z,52.37
2023-01-30T00:56:19.787Z,48.82
2023-01-30T00:57:19.747Z,47.05
2023-01-30T00:58:19.780Z,46.73
2023-01-30T00:59:19.759Z,60.26
2023-01-30T01:00:19.878Z,62.20
2023-01-30T01:01:19.770Z,53.82
2023-01-30T01:02:19.822Z,48.66
2023-01-30T01:03:19.970Z,55.75
2023-01-30T01:04:19.753Z,50.11
2023-01-30T01:05:20.230Z,48.50
2023-01-30T01:06:19.674Z,49.79
2023-01-30T01:07:21.265Z,47.21
2023-01-30T01:08:20.035Z,46.73
2023-01-30T01:09:19.662Z,47.37
2023-01-30T01:10:19.663Z,46.57
2023-01-30T01:11:21.450Z,60.10
2023-01-30T01:12:19.657Z,53.82
2023-01-30T01:13:19.702Z,63.65
2023-01-30T01:14:19.648Z,59.78
2023-01-30T01:15:19.833Z,58.97
2023-01-30T01:16:19.621Z,48.82
2023-01-30T01:17:19.657Z,51.56
2023-01-30T01:18:19.582Z,48.18
2023-01-30T01:19:19.531Z,45.60
2023-01-30T01:20:19.570Z,48.66
2023-01-30T01:21:20.375Z,47.21
2023-01-30T01:22:19.651Z,54.62
2023-01-30T01:23:19.591Z,50.43
2023-01-30T01:24:19.512Z,48.50
2023-01-30T01:25:19.772Z,45.92
2023-01-30T01:26:19.490Z,46.08
2023-01-30T01:27:19.653Z,46.57
2023-01-30T01:28:19.457Z,56.24
2023-01-30T01:29:19.459Z,62.68
2023-01-30T01:30:19.503Z,57.36
2023-01-30T01:31:20.101Z,58.33
2023-01-30T01:32:19.447Z,58.65
2023-01-30T01:33:19.400Z,56.72
2023-01-30T01:34:19.369Z,48.18
2023-01-30T01:35:19.896Z,52.69
2023-01-30T01:36:42.323Z,58.33
2023-01-30T01:37:21.578Z,48.82
2023-01-30T01:38:19.391Z,55.43
2023-01-30T01:39:19.316Z,47.37
2023-01-30T01:40:19.342Z,45.60
2023-01-30T01:41:19.309Z,48.66
2023-01-30T01:42:19.275Z,50.27
2023-01-30T01:43:19.385Z,47.05
2023-01-30T01:44:19.283Z,48.98
2023-01-30T01:45:19.629Z,46.57
2023-01-30T01:46:20.047Z,47.21
2023-01-30T01:47:19.354Z,49.47
2023-01-30T01:48:19.248Z,49.79
2023-01-30T01:49:20.259Z,45.92
2023-01-30T01:50:19.315Z,52.05
2023-01-30T01:51:19.223Z,46.73
2023-01-30T01:52:19.387Z,52.85
2023-01-30T01:53:19.212Z,48.66
2023-01-30T01:54:19.168Z,52.69
2023-01-30T01:55:19.330Z,48.82
2023-01-30T01:56:19.141Z,60.42
2023-01-30T01:57:19.169Z,52.53
2023-01-30T01:58:19.148Z,49.95
2023-01-30T01:59:19.156Z,48.66
2023-01-30T02:00:19.106Z,57.36
2023-01-30T02:01:19.150Z,45.44
2023-01-30T02:02:19.142Z,49.47
2023-01-30T02:03:19.118Z,47.86
2023-01-30T02:04:19.084Z,55.91
2023-01-30T02:05:19.456Z,47.37
2023-01-30T02:06:19.050Z,48.34
2023-01-30T02:07:19.242Z,58.17
2023-01-30T02:08:19.081Z,55.11
2023-01-30T02:09:19.036Z,48.66
2023-01-30T02:10:19.045Z,49.15
2023-01-30T02:11:20.137Z,47.37
2023-01-30T02:12:19.008Z,47.70
2023-01-30T02:13:18.980Z,49.79
2023-01-30T02:14:18.969Z,54.46
2023-01-30T02:15:19.340Z,48.82
2023-01-30T02:16:19.004Z,44.31
2023-01-30T02:17:19.038Z,44.31
2023-01-30T02:18:18.927Z,52.21
2023-01-30T02:19:18.905Z,58.97
2023-01-30T02:20:18.891Z,64.29
2023-01-30T02:21:18.950Z,52.69
2023-01-30T02:22:18.934Z,50.27
2023-01-30T02:23:18.857Z,58.01
2023-01-30T02:24:18.855Z,56.40
2023-01-30T02:25:19.220Z,45.76
2023-01-30T02:26:18.885Z,47.21
2023-01-30T02:27:18.864Z,45.92
2023-01-30T02:28:18.892Z,62.52
2023-01-30T02:29:18.826Z,45.28
2023-01-30T02:30:18.906Z,46.08
2023-01-30T02:31:18.976Z,47.53
2023-01-30T02:32:18.794Z,50.92
2023-01-30T02:33:18.778Z,58.97
2023-01-30T02:34:18.766Z,54.79
2023-01-30T02:35:19.252Z,57.69
2023-01-30T02:36:18.743Z,54.62
2023-01-30T02:37:18.731Z,49.31
2023-01-30T02:38:18.761Z,60.75
2023-01-30T02:39:18.814Z,53.33
2023-01-30T02:40:18.675Z,47.70
2023-01-30T02:41:18.690Z,58.01
2023-01-30T02:42:18.677Z,60.91
2023-01-30T02:43:18.676Z,58.81
2023-01-30T02:44:18.675Z,58.01
2023-01-30T02:45:18.920Z,60.26
2023-01-30T02:46:18.675Z,62.36
2023-01-30T02:47:18.652Z,62.20
2023-01-30T02:48:18.644Z,64.94
2023-01-30T02:49:18.646Z,60.59
2023-01-30T02:50:18.587Z,46.25
2023-01-30T02:51:18.549Z,47.53
2023-01-30T02:52:18.764Z,53.82
2023-01-30T02:53:19.098Z,62.84
2023-01-30T02:54:18.515Z,50.27
2023-01-30T02:55:18.814Z,57.52
2023-01-30T02:56:18.522Z,55.59
2023-01-30T02:57:18.524Z,47.86
2023-01-30T02:58:18.544Z,46.89
2023-01-30T02:59:18.527Z,62.20
2023-01-30T03:00:18.451Z,64.29
2023-01-30T03:01:18.552Z,57.69
2023-01-30T03:02:18.489Z,63.97
2023-01-30T03:03:19.023Z,54.62
2023-01-30T03:04:18.513Z,50.76
2023-01-30T03:05:18.932Z,63.81
2023-01-30T03:06:18.414Z,52.21
2023-01-30T03:07:18.396Z,53.01
2023-01-30T03:08:19.493Z,51.56
2023-01-30T03:09:18.376Z,50.92
2023-01-30T03:10:19.402Z,57.69
2023-01-30T03:11:18.388Z,57.36
2023-01-30T03:12:18.354Z,65.58
2023-01-30T03:13:18.347Z,60.26
2023-01-30T03:14:18.331Z,64.13
2023-01-30T03:15:18.604Z,57.36
2023-01-30T03:16:18.436Z,49.95
2023-01-30T03:17:18.304Z,55.59
2023-01-30T03:18:18.280Z,51.56
2023-01-30T03:19:18.263Z,49.63
2023-01-30T03:20:18.298Z,64.94
2023-01-30T03:21:18.282Z,61.23
2023-01-30T03:22:18.303Z,59.14
2023-01-30T03:23:18.399Z,49.95
2023-01-30T03:24:18.408Z,53.17
2023-01-30T03:25:19.120Z,53.01
2023-01-30T03:26:18.248Z,65.58
2023-01-30T03:27:18.415Z,56.24
2023-01-30T03:28:19.337Z,58.33
2023-01-30T03:29:19.205Z,46.73
2023-01-30T03:30:18.835Z,49.31
2023-01-30T03:31:18.265Z,59.94
2023-01-30T03:32:18.116Z,63.00
2023-01-30T03:33:18.100Z,64.78
2023-01-30T03:34:18.053Z,59.46
2023-01-30T03:35:19.028Z,60.91
2023-01-30T03:36:18.152Z,59.30
2023-01-30T03:37:18.053Z,53.66
2023-01-30T03:38:18.029Z,61.71
2023-01-30T03:39:18.024Z,53.98
2023-01-30T03:40:18.003Z,64.78
2023-01-30T03:41:18.308Z,67.35
2023-01-30T03:42:18.737Z,57.20
2023-01-30T03:43:19.025Z,53.17
2023-01-30T03:44:19.837Z,59.30
2023-01-30T03:45:20.332Z,59.46
2023-01-30T03:46:19.666Z,64.78
2023-01-30T03:47:17.949Z,62.52
2023-01-30T03:48:19.148Z,62.36
2023-01-30T03:49:17.949Z,64.61
2023-01-30T03:50:18.062Z,56.72
2023-01-30T03:51:18.450Z,58.65
2023-01-30T03:52:18.357Z,56.07
2023-01-30T03:53:17.946Z,54.46
2023-01-30T03:54:17.854Z,64.94
2023-01-30T03:55:18.201Z,56.72
2023-01-30T03:56:17.870Z,66.71
2023-01-30T03:57:17.850Z,56.24
2023-01-30T03:58:17.831Z,63.65
2023-01-30T03:59:19.586Z,60.10
2023-01-30T04:00:17.973Z,63.16
2023-01-30T04:01:20.024Z,60.75
2023-01-30T04:02:18.811Z,63.16
2023-01-30T04:03:18.083Z,66.55
2023-01-30T04:04:17.917Z,65.58
2023-01-30T04:05:18.167Z,63.81
2023-01-30T04:06:17.738Z,66.23
2023-01-30T04:07:17.713Z,54.95
2023-01-30T04:08:21.325Z,65.26
2023-01-30T04:09:17.677Z,66.06
2023-01-30T04:10:17.668Z,69.77
2023-01-30T04:11:17.661Z,64.45
2023-01-30T04:12:18.235Z,69.61
2023-01-30T04:13:17.656Z,69.45
2023-01-30T04:14:17.642Z,67.03
2023-01-30T04:15:18.163Z,66.55
2023-01-30T04:16:17.690Z,67.35
2023-01-30T04:17:18.312Z,73.15
2023-01-30T04:18:18.007Z,67.19
2023-01-30T04:19:19.082Z,70.09
2023-01-30T04:20:17.558Z,66.71
2023-01-30T04:21:17.790Z,69.61
2023-01-30T04:22:17.599Z,67.03
2023-01-30T04:23:17.519Z,68.48
2023-01-30T04:24:17.554Z,72.99
2023-01-30T04:25:17.844Z,72.51
2023-01-30T04:26:18.176Z,73.48
2023-01-30T04:27:17.476Z,71.22
2023-01-30T04:28:17.475Z,72.67
2023-01-30T04:29:17.921Z,73.15
2023-01-30T04:30:18.090Z,72.35
2023-01-30T04:31:17.727Z,73.32
2023-01-30T04:32:17.932Z,74.77
2023-01-30T04:33:18.080Z,68.96
2023-01-30T04:34:17.411Z,72.03
2023-01-30T04:35:17.851Z,73.96
2023-01-30T04:36:17.904Z,76.38
2023-01-30T04:37:17.384Z,73.48
2023-01-30T04:38:20.201Z,75.25
2023-01-30T04:39:20.536Z,74.93
2023-01-30T04:40:19.961Z,75.25
2023-01-30T04:41:19.256Z,77.02
2023-01-30T04:42:20.974Z,73.15
2023-01-30T04:43:17.399Z,74.60
2023-01-30T04:44:17.427Z,74.77
2023-01-30T04:45:17.589Z,74.77
2023-01-30T04:46:17.288Z,74.44
2023-01-30T04:47:17.419Z,72.67
2023-01-30T04:48:17.340Z,75.41
2023-01-30T04:49:17.310Z,73.48
2023-01-30T04:50:17.267Z,76.54
2023-01-30T04:51:17.224Z,71.22
2023-01-30T04:52:17.267Z,74.60
2023-01-30T04:53:17.230Z,75.25
2023-01-30T04:54:17.267Z,73.48
2023-01-30T04:55:17.415Z,75.25
2023-01-30T04:56:17.241Z,72.99
2023-01-30T04:57:17.152Z,73.15
2023-01-30T04:58:17.126Z,72.35
2023-01-30T04:59:17.175Z,74.12
2023-01-30T05:00:17.193Z,75.41
2023-01-30T05:01:17.332Z,74.44
2023-01-30T05:02:17.202Z,74.77
2023-01-30T05:03:17.135Z,74.44
2023-01-30T05:04:17.266Z,73.96
2023-01-30T05:05:18.429Z,76.54
2023-01-30T05:06:17.070Z,74.93
2023-01-30T05:07:17.077Z,72.19
2023-01-30T05:08:17.084Z,75.57
2023-01-30T05:09:17.030Z,73.64
2023-01-30T05:10:17.045Z,72.35
2023-01-30T05:11:17.060Z,71.70
2023-01-30T05:12:17.015Z,74.60
2023-01-30T05:13:17.118Z,75.41
2023-01-30T05:14:16.990Z,72.83
2023-01-30T05:15:17.279Z,74.12
2023-01-30T05:16:16.953Z,72.83
2023-01-30T05:17:17.049Z,75.41
2023-01-30T05:18:17.057Z,76.70
2023-01-30T05:19:17.044Z,74.44
2023-01-30T05:20:16.925Z,75.57
2023-01-30T05:21:16.968Z,77.50
2023-01-30T05:22:16.971Z,71.54
2023-01-30T05:23:16.918Z,74.60
2023-01-30T05:24:17.863Z,75.25
2023-01-30T05:25:17.210Z,75.73
2023-01-30T05:26:16.926Z,73.32
2023-01-30T05:27:16.918Z,72.67
2023-01-30T05:28:18.686Z,75.25
2023-01-30T05:29:18.085Z,74.28
2023-01-30T05:30:18.703Z,75.89
2023-01-30T05:31:19.120Z,75.89
2023-01-30T05:32:19.139Z,76.05
2023-01-30T05:33:17.111Z,75.57
2023-01-30T05:34:18.786Z,74.60
2023-01-30T05:35:17.375Z,77.99
2023-01-30T05:36:16.763Z,76.38
2023-01-30T05:37:16.799Z,77.18
2023-01-30T05:38:16.730Z,77.50
2023-01-30T05:39:16.695Z,73.80
2023-01-30T05:40:16.722Z,76.22
2023-01-30T05:41:16.692Z,76.70
2023-01-30T05:42:16.643Z,76.70
2023-01-30T05:43:16.734Z,77.18
2023-01-30T05:44:16.636Z,77.99
2023-01-30T05:45:17.143Z,76.38
2023-01-30T05:46:16.683Z,76.54
2023-01-30T05:47:16.848Z,77.99
2023-01-30T05:48:19.507Z,75.73
2023-01-30T05:49:18.351Z,77.50
2023-01-30T05:50:17.364Z,77.02
2023-01-30T05:51:20.144Z,78.15
2023-01-30T05:52:18.151Z,75.73
2023-01-30T05:53:18.168Z,77.18
2023-01-30T05:54:19.808Z,72.67
2023-01-30T05:55:20.339Z,74.12
2023-01-30T05:56:18.591Z,75.25
2023-01-30T05:57:16.544Z,76.54
2023-01-30T05:58:16.543Z,75.89
2023-01-30T05:59:16.665Z,75.25
2023-01-30T06:00:18.019Z,77.99
2023-01-30T06:01:19.682Z,76.70
2023-01-30T06:02:18.776Z,72.67
2023-01-30T06:03:18.117Z,77.50
2023-01-30T06:04:18.896Z,72.03
2023-01-30T06:05:19.845Z,75.25
2023-01-30T06:06:19.646Z,78.47
2023-01-30T06:07:19.154Z,74.93
2023-01-30T06:08:20.420Z,74.44
2023-01-30T06:09:20.135Z,75.73
2023-01-30T06:10:18.057Z,76.54
2023-01-30T06:11:18.149Z,75.89
2023-01-30T06:12:19.423Z,76.38
2023-01-30T06:13:19.287Z,77.50
2023-01-30T06:14:17.840Z,77.99
2023-01-30T06:15:21.530Z,77.50
2023-01-30T06:16:19.342Z,76.38
2023-01-30T06:17:21.630Z,75.25
2023-01-30T06:18:18.003Z,75.73
2023-01-30T06:19:18.314Z,78.63
2023-01-30T06:20:20.410Z,77.50
2023-01-30T06:21:22.410Z,77.99
2023-01-30T06:22:17.446Z,76.22
2023-01-30T06:23:17.765Z,74.93
2023-01-30T06:24:19.962Z,75.73
2023-01-30T06:25:18.163Z,76.05
2023-01-30T06:26:19.654Z,74.93
2023-01-30T06:27:20.494Z,79.12
2023-01-30T06:28:18.934Z,78.96
2023-01-30T06:29:18.249Z,77.67
2023-01-30T06:30:18.596Z,77.02
2023-01-30T06:31:19.651Z,78.31
2023-01-30T06:32:19.557Z,77.99
2023-01-30T06:33:16.153Z,75.41
2023-01-30T06:34:16.129Z,77.02
2023-01-30T06:35:16.558Z,77.02
2023-01-30T06:36:16.267Z,77.83
2023-01-30T06:37:18.852Z,77.02
2023-01-30T06:38:18.782Z,77.02
2023-01-30T06:39:19.234Z,77.34
2023-01-30T06:40:18.393Z,77.99
2023-01-30T06:41:20.183Z,77.18
2023-01-30T06:42:18.404Z,75.89
2023-01-30T06:43:15.985Z,76.86
2023-01-30T06:44:16.027Z,76.05
2023-01-30T06:45:16.667Z,74.77
2023-01-30T06:46:16.540Z,77.50
2023-01-30T06:47:17.526Z,77.02
2023-01-30T06:48:17.659Z,77.02
2023-01-30T06:49:19.789Z,74.60
2023-01-30T06:50:18.040Z,76.05
2023-01-30T06:51:20.116Z,76.70
2023-01-30T06:52:19.058Z,78.96
2023-01-30T06:53:17.422Z,80.24
2023-01-30T06:54:20.128Z,76.70
2023-01-30T06:55:18.911Z,73.80
2023-01-30T06:56:18.488Z,77.34
2023-01-30T06:57:19.665Z,75.25
2023-01-30T06:58:18.687Z,75.73
2023-01-30T06:59:17.856Z,77.50
2023-01-30T07:00:20.239Z,77.34
2023-01-30T07:01:21.004Z,77.83
2023-01-30T07:02:15.794Z,73.32
2023-01-30T07:03:19.536Z,75.89
2023-01-30T07:04:20.124Z,75.89
2023-01-30T07:05:17.610Z,73.96
2023-01-30T07:06:16.563Z,74.77
2023-01-30T07:07:20.650Z,75.41
2023-01-30T07:08:19.809Z,76.05
2023-01-30T07:09:19.219Z,71.22
2023-01-30T07:10:22.476Z,74.93
2023-01-30T07:11:18.946Z,76.54
2023-01-30T07:12:17.265Z,75.89
2023-01-30T07:13:18.970Z,77.34
2023-01-30T07:14:17.424Z,75.09
2023-01-30T07:15:17.473Z,75.89
2023-01-30T07:16:16.919Z,75.89
2023-01-30T07:17:19.594Z,73.48
2023-01-30T07:18:19.037Z,74.28
2023-01-30T07:19:16.273Z,74.77
2023-01-30T07:20:16.129Z,75.25
2023-01-30T07:21:15.873Z,76.05
2023-01-30T07:22:18.927Z,72.99
2023-01-30T07:23:18.587Z,71.38
2023-01-30T07:24:15.726Z,74.77
2023-01-30T07:25:15.746Z,77.50
2023-01-30T07:26:17.872Z,75.25
2023-01-30T07:27:18.676Z,76.86
2023-01-30T07:28:17.849Z,77.99
2023-01-30T07:29:17.181Z,76.70
2023-01-30T07:30:16.493Z,75.73
2023-01-30T07:31:19.151Z,76.05
2023-01-30T07:32:17.901Z,76.22
2023-01-30T07:33:17.063Z,73.80
2023-01-30T07:34:18.651Z,74.44
2023-01-30T07:35:20.485Z,71.87
2023-01-30T07:36:17.968Z,73.64
2023-01-30T07:37:17.629Z,77.50
2023-01-30T07:38:18.863Z,75.09
2023-01-30T07:39:16.930Z,75.89
2023-01-30T07:40:15.355Z,74.77
2023-01-30T07:41:18.297Z,74.44
2023-01-30T07:42:17.711Z,72.03
2023-01-30T07:43:18.099Z,76.54
2023-01-30T07:44:20.254Z,75.41
2023-01-30T07:45:18.310Z,75.09
2023-01-30T07:46:16.919Z,74.77
2023-01-30T07:47:17.250Z,72.83
2023-01-30T07:48:17.847Z,73.48
2023-01-30T07:49:17.320Z,74.28
2023-01-30T07:50:17.449Z,74.60
2023-01-30T07:51:18.565Z,75.09
2023-01-30T07:52:16.569Z,75.41
2023-01-30T07:53:16.318Z,72.99
2023-01-30T07:54:15.548Z,74.44
2023-01-30T07:55:18.877Z,74.77
2023-01-30T07:56:16.585Z,75.25
2023-01-30T07:57:19.212Z,73.96
2023-01-30T07:58:15.164Z,70.42
2023-01-30T07:59:15.171Z,74.12
2023-01-30T08:00:15.375Z,73.96
2023-01-30T08:01:17.709Z,75.09
2023-01-30T08:02:19.597Z,71.70
2023-01-30T08:03:16.277Z,73.32
2023-01-30T08:04:15.423Z,70.90
2023-01-30T08:05:15.109Z,74.44
2023-01-30T08:06:15.083Z,72.35
2023-01-30T08:07:15.408Z,75.09
2023-01-30T08:08:15.043Z,76.05
2023-01-30T08:09:15.230Z,77.02
2023-01-30T08:10:15.959Z,72.19
2023-01-30T08:11:16.579Z,73.15
2023-01-30T08:12:15.594Z,74.93
2023-01-30T08:13:15.820Z,69.93
2023-01-30T08:14:15.180Z,69.77
2023-01-30T08:15:15.217Z,73.80
2023-01-30T08:16:16.587Z,73.96
2023-01-30T08:17:15.257Z,68.64
2023-01-30T08:18:15.923Z,71.54
2023-01-30T08:19:15.128Z,70.09
2023-01-30T08:20:17.765Z,76.05
2023-01-30T08:21:16.448Z,72.99
2023-01-30T08:22:16.313Z,74.28
2023-01-30T08:23:15.179Z,73.80
2023-01-30T08:24:16.120Z,74.93
2023-01-30T08:25:15.310Z,70.74
2023-01-30T08:26:14.965Z,74.77
2023-01-30T08:27:14.889Z,73.32
2023-01-30T08:28:14.967Z,69.13
2023-01-30T08:29:14.846Z,73.15
2023-01-30T08:30:14.830Z,72.67
2023-01-30T08:31:14.916Z,75.09
2023-01-30T08:32:15.890Z,75.41
2023-01-30T08:33:15.814Z,71.06
2023-01-30T08:34:14.834Z,73.96
2023-01-30T08:35:14.774Z,75.25
2023-01-30T08:36:14.775Z,76.38
2023-01-30T08:37:14.756Z,73.96
2023-01-30T08:38:14.765Z,73.32
2023-01-30T08:39:14.718Z,73.15
2023-01-30T08:40:14.777Z,73.48
2023-01-30T08:41:14.758Z,74.28
2023-01-30T08:42:14.761Z,72.99
2023-01-30T08:43:14.728Z,71.38
2023-01-30T08:44:14.706Z,75.09
2023-01-30T08:45:14.753Z,74.28
2023-01-30T08:46:16.098Z,72.19
2023-01-30T08:47:17.080Z,70.58
2023-01-30T08:48:18.669Z,74.44
2023-01-30T08:49:17.545Z,68.64
2023-01-30T08:50:17.598Z,74.44
2023-01-30T08:51:18.777Z,72.99
2023-01-30T08:52:17.685Z,71.70
2023-01-30T08:53:17.486Z,72.35
2023-01-30T08:54:18.388Z,70.42
2023-01-30T08:55:18.820Z,73.96
2023-01-30T08:56:15.998Z,75.89
2023-01-30T08:57:18.037Z,69.93
2023-01-30T08:58:18.589Z,69.45
2023-01-30T08:59:15.258Z,70.74
2023-01-30T09:00:17.456Z,75.41
2023-01-30T09:01:16.367Z,74.93
2023-01-30T09:02:18.884Z,72.35
2023-01-30T09:03:16.745Z,72.67
2023-01-30T09:04:46.838Z,75.41
2023-01-30T09:05:46.847Z,72.83
2023-01-30T09:06:50.182Z,73.32
2023-01-30T09:07:50.116Z,74.60
2023-01-30T09:08:48.972Z,70.25
2023-01-30T09:09:48.062Z,75.89
2023-01-30T09:10:46.771Z,75.89
2023-01-30T09:11:46.763Z,73.96
2023-01-30T09:12:47.791Z,65.90
2023-01-30T09:13:49.828Z,68.32
2023-01-30T09:14:48.143Z,74.12
2023-01-30T09:15:47.307Z,64.29
2023-01-30T09:16:46.958Z,69.29
2023-01-30T09:17:49.158Z,69.61
2023-01-30T09:18:51.316Z,68.32
2023-01-30T09:19:48.302Z,71.70
2023-01-30T09:20:16.694Z,77.34
2023-01-30T09:21:48.063Z,71.38
2023-01-30T09:22:47.650Z,73.48
2023-01-30T09:23:44.242Z,69.77
2023-01-30T09:24:46.643Z,71.38
2023-01-30T09:25:17.636Z,72.99
2023-01-30T09:26:46.660Z,72.99
2023-01-30T09:27:17.347Z,75.57
2023-01-30T09:28:20.667Z,72.35
2023-01-30T09:29:18.984Z,73.15
2023-01-30T09:30:14.355Z,70.58
2023-01-30T09:31:14.678Z,71.06
2023-01-30T09:32:16.675Z,72.99
2023-01-30T09:33:16.127Z,72.19
2023-01-30T09:34:15.546Z,73.48
2023-01-30T09:35:14.618Z,67.51
2023-01-30T09:36:16.963Z,72.19
2023-01-30T09:37:15.304Z,74.77
2023-01-30T09:38:17.681Z,74.44
2023-01-30T09:39:15.830Z,69.61
2023-01-30T09:40:17.139Z,74.44
2023-01-30T09:41:16.308Z,75.09
2023-01-30T09:42:18.417Z,70.74
2023-01-30T09:43:16.283Z,71.87
2023-01-30T09:44:16.478Z,67.68
2023-01-30T09:45:18.381Z,73.15
2023-01-30T09:46:17.484Z,75.73
2023-01-30T09:47:17.016Z,71.70
2023-01-30T09:48:17.976Z,71.06
2023-01-30T09:49:14.037Z,70.90
2023-01-30T09:50:14.088Z,70.09
2023-01-30T09:51:14.071Z,72.19
2023-01-30T09:52:14.037Z,71.38
2023-01-30T09:53:14.247Z,70.74
2023-01-30T09:54:13.964Z,70.74
2023-01-30T09:55:13.972Z,72.83
2023-01-30T09:56:13.992Z,74.44
2023-01-30T09:57:20.897Z,74.77
2023-01-30T09:58:14.890Z,72.35
2023-01-30T09:59:13.920Z,71.06
2023-01-30T10:00:13.964Z,71.70
2023-01-30T10:01:13.884Z,72.51
2023-01-30T10:02:13.891Z,71.06
2023-01-30T10:03:13.915Z,73.15
2023-01-30T10:04:13.836Z,71.87
2023-01-30T10:05:13.853Z,71.38
2023-01-30T10:06:13.815Z,66.87
2023-01-30T10:07:13.810Z,71.22
2023-01-30T10:08:13.805Z,70.09
2023-01-30T10:09:13.843Z,68.00
2023-01-30T10:10:13.819Z,68.32
2023-01-30T10:11:13.774Z,69.29
2023-01-30T10:12:13.776Z,70.25
2023-01-30T10:13:13.724Z,71.54
2023-01-30T10:14:13.802Z,69.13
2023-01-30T10:15:13.729Z,72.67
2023-01-30T10:16:13.757Z,71.54
2023-01-30T10:17:13.713Z,70.09
2023-01-30T10:18:13.675Z,72.35
2023-01-30T10:19:18.162Z,69.77
2023-01-30T10:20:15.683Z,73.32
2023-01-30T10:21:13.649Z,68.48
2023-01-30T10:22:13.629Z,69.93
2023-01-30T10:23:13.890Z,71.70
2023-01-30T10:24:13.629Z,70.58
2023-01-30T10:25:13.648Z,72.51
2023-01-30T10:26:13.664Z,71.54
2023-01-30T10:27:13.574Z,69.61
2023-01-30T10:28:13.573Z,71.70
2023-01-30T10:29:13.633Z,74.60
2023-01-30T10:30:13.580Z,72.19
2023-01-30T10:31:13.681Z,74.93
2023-01-30T10:32:13.545Z,72.83
2023-01-30T10:33:13.612Z,70.09
2023-01-30T10:34:13.508Z,69.61
2023-01-30T10:35:13.517Z,72.03
2023-01-30T10:36:13.472Z,71.22
2023-01-30T10:37:13.518Z,69.61
2023-01-30T10:38:13.479Z,70.90
2023-01-30T10:39:13.469Z,70.90
2023-01-30T10:40:13.445Z,72.67
2023-01-30T10:41:13.452Z,72.19
2023-01-30T10:42:13.553Z,69.61
2023-01-30T10:43:13.537Z,69.61
2023-01-30T10:44:13.478Z,73.15
2023-01-30T10:45:13.399Z,74.93
2023-01-30T10:46:13.399Z,72.83
2023-01-30T10:47:13.433Z,66.71
2023-01-30T10:48:13.321Z,72.19
2023-01-30T10:49:13.383Z,66.87
2023-01-30T10:50:13.353Z,69.77
2023-01-30T10:51:13.328Z,70.25
2023-01-30T10:52:13.344Z,70.25
2023-01-30T10:53:13.314Z,67.68
2023-01-30T10:54:13.304Z,67.35
2023-01-30T10:55:13.308Z,68.96
2023-01-30T10:56:13.259Z,71.54
2023-01-30T10:57:13.271Z,69.13
2023-01-30T10:58:13.205Z,71.87
2023-01-30T10:59:14.206Z,65.10
2023-01-30T11:00:13.455Z,68.64
2023-01-30T11:01:13.258Z,70.09
2023-01-30T11:02:13.214Z,70.42
2023-01-30T11:03:13.263Z,69.77
2023-01-30T11:04:13.191Z,69.93
2023-01-30T11:05:13.229Z,67.68
2023-01-30T11:06:13.283Z,68.80
2023-01-30T11:07:13.182Z,71.54
2023-01-30T11:08:13.192Z,69.13
2023-01-30T11:09:13.101Z,69.45
2023-01-30T11:10:13.193Z,72.35
2023-01-30T11:11:13.095Z,72.03
2023-01-30T11:12:13.083Z,71.06
2023-01-30T11:13:13.101Z,70.09
2023-01-30T11:14:13.077Z,69.77
2023-01-30T11:15:13.553Z,67.03
2023-01-30T11:16:13.545Z,69.13
2023-01-30T11:17:13.056Z,72.03
2023-01-30T11:18:49.806Z,70.74
2023-01-30T11:19:20.681Z,72.03
2023-01-30T11:20:15.029Z,73.15
2023-01-30T11:21:12.952Z,70.09
2023-01-30T11:22:13.081Z,70.09
2023-01-30T11:23:12.991Z,68.96
2023-01-30T11:24:12.957Z,68.96
2023-01-30T11:25:12.958Z,70.74
2023-01-30T11:26:13.053Z,70.25
2023-01-30T11:27:12.962Z,68.64
2023-01-30T11:28:13.908Z,69.61
2023-01-30T11:29:12.929Z,72.03
2023-01-30T11:30:12.904Z,70.58
2023-01-30T11:31:12.998Z,70.90
2023-01-30T11:32:12.941Z,72.35
2023-01-30T11:33:12.881Z,71.70
2023-01-30T11:34:12.885Z,73.96
2023-01-30T11:35:12.849Z,73.32
2023-01-30T11:36:12.819Z,74.93
2023-01-30T11:37:12.818Z,74.44
2023-01-30T11:38:12.833Z,68.96
2023-01-30T11:39:12.791Z,71.38
2023-01-30T11:40:12.830Z,70.74
2023-01-30T11:41:13.165Z,71.38
2023-01-30T11:42:13.016Z,70.09
2023-01-30T11:43:12.767Z,70.42
2023-01-30T11:44:13.082Z,68.48
2023-01-30T11:45:17.869Z,71.38
2023-01-30T11:46:14.816Z,68.00
2023-01-30T11:47:12.920Z,70.09
2023-01-30T11:48:28.704Z,72.19
2023-01-30T11:49:47.246Z,69.13
2023-01-30T11:50:28.595Z,68.48
2023-01-30T11:51:13.758Z,74.77
2023-01-30T11:52:12.685Z,70.74
2023-01-30T11:53:45.087Z,72.19
2023-01-30T11:54:12.651Z,73.48
2023-01-30T11:55:12.624Z,68.96
2023-01-30T11:56:13.124Z,69.77
2023-01-30T11:57:12.650Z,71.54
2023-01-30T11:58:12.628Z,70.25
2023-01-30T11:59:12.582Z,72.35
2023-01-30T12:00:12.709Z,73.32
2023-01-30T12:01:12.553Z,72.19
2023-01-30T12:02:12.571Z,70.90
2023-01-30T12:03:12.573Z,71.54
2023-01-30T12:04:14.340Z,70.58
2023-01-30T12:05:12.524Z,71.06
2023-01-30T12:06:12.574Z,71.70
2023-01-30T12:07:12.638Z,73.32
2023-01-30T12:08:12.541Z,73.48
2023-01-30T12:09:12.555Z,72.99
2023-01-30T12:10:12.592Z,69.93
2023-01-30T12:11:12.430Z,72.19
2023-01-30T12:12:12.417Z,68.80
2023-01-30T12:13:12.476Z,69.29
2023-01-30T12:14:12.402Z,72.03
2023-01-30T12:15:13.411Z,73.15
2023-01-30T12:16:12.497Z,71.22
2023-01-30T12:17:12.344Z,70.09
2023-01-30T12:18:12.363Z,71.06
2023-01-30T12:19:12.398Z,71.54
2023-01-30T12:20:12.536Z,72.51
2023-01-30T12:21:13.074Z,72.03
2023-01-30T12:22:12.379Z,72.51
2023-01-30T12:23:12.366Z,69.13
2023-01-30T12:24:12.294Z,72.19
2023-01-30T12:25:12.296Z,70.25
2023-01-30T12:26:12.370Z,71.22
2023-01-30T12:27:12.305Z,72.19
2023-01-30T12:28:12.279Z,69.77
2023-01-30T12:29:12.364Z,69.77
2023-01-30T12:30:12.226Z,69.93
2023-01-30T12:31:12.262Z,66.87
2023-01-30T12:32:12.215Z,72.83
2023-01-30T12:33:12.341Z,74.12
2023-01-30T12:34:12.311Z,72.19
2023-01-30T12:35:12.175Z,71.22
2023-01-30T12:36:12.236Z,71.70
2023-01-30T12:37:12.170Z,73.80
2023-01-30T12:38:12.171Z,68.16
2023-01-30T12:39:12.140Z,71.38
2023-01-30T12:40:12.227Z,72.99
2023-01-30T12:41:12.116Z,72.35
2023-01-30T12:42:12.093Z,70.58
2023-01-30T12:43:12.087Z,70.90
2023-01-30T12:44:12.616Z,72.19
2023-01-30T12:45:12.067Z,68.96
2023-01-30T12:46:12.092Z,70.42
2023-01-30T12:47:12.786Z,71.87
2023-01-30T12:48:12.252Z,66.87
2023-01-30T12:49:12.327Z,70.42
2023-01-30T12:50:13.099Z,70.09
2023-01-30T12:51:12.481Z,69.45
2023-01-30T12:52:11.996Z,68.32